Terminal Aerodrome Forecast
Issued by NWS Bismarck, ND

Home | Current Version | Previous Version | Graphics & Text | Print | Product List | Glossary On
Versions: 1 2 3 4 5 6 7 8 9 10 11 12 13 14 15 16 17 18 19 20 21 22
000
FTUS43 KBIS 221720
TAFBIS
TAF
KBIS 221720Z 2218/2318 36011G20KT P6SM VCSH BKN025
     FM221900 01011G22KT P6SM VCTS OVC015CB
     FM222300 35011KT P6SM OVC015
     FM230600 34008KT P6SM VCSH OVC035
     FM230900 36006KT P6SM VCSH OVC015
     FM231200 34006KT P6SM OVC015
     FM231600 36008KT P6SM OVC035=

USA.gov is the U.S. government's official web portal to all federal, state and local government web resources and services.